Time;durP1;ratioP1;P1;durP2;ratioP2;P2;SDS_P1;SDS_P2;PMS_P1;PMS_P2;Temp;Humidity;BMP_temperature;BMP_pressure;BME280_temperature;BME280_humidity;BME280_pressure;Samples;Min_cycle;Max_cycle;Signal;HPM_P1;HPM_P2
2022/02/15 00:00:17;;;;;;;23.35;15.65;;;3.40;99.90;;;;;;5088160;28;20195;-84
2022/02/15 00:02:44;;;;;;;20.58;14.20;;;3.60;99.90;;;;;;5088423;28;20463;-84
2022/02/15 00:05:13;;;;;;;19.95;14.60;;;3.80;99.90;;;;;;5088218;28;20188;-84
2022/02/15 00:07:40;;;;;;;27.92;15.55;;;3.90;99.90;;;;;;5087292;28;20208;-84
2022/02/15 00:10:08;;;;;;;30.23;18.02;;;4.00;99.90;;;;;;5086142;28;20197;-84
2022/02/15 00:12:36;;;;;;;23.27;15.50;;;4.00;99.90;;;;;;5085327;28;20218;-85
2022/02/15 00:15:07;;;;;;;24.48;15.82;;;4.10;99.90;;;;;;5088587;28;20201;-83
2022/02/15 00:17:36;;;;;;;19.20;13.77;;;4.00;99.90;;;;;;5087536;28;20214;-84
2022/02/15 00:20:06;;;;;;;25.55;15.55;;;4.00;99.90;;;;;;5087231;28;20198;-82
2022/02/15 00:22:33;;;;;;;21.30;13.52;;;4.10;99.90;;;;;;5086681;28;20201;-84
2022/02/15 00:25:00;;;;;;;27.30;14.20;;;4.20;99.90;;;;;;5084564;28;20202;-84
2022/02/15 00:27:27;;;;;;;15.90;12.93;;;4.20;99.90;;;;;;5086310;28;20422;-83
2022/02/15 00:29:55;;;;;;;32.00;15.52;;;4.20;99.90;;;;;;5086529;28;20420;-83
2022/02/15 00:32:22;;;;;;;28.60;17.13;;;4.20;99.90;;;;;;5086425;28;20205;-85
2022/02/15 00:34:50;;;;;;;26.30;16.45;;;4.10;99.90;;;;;;5085293;28;20395;-83
2022/02/15 00:37:18;;;;;;;24.67;14.50;;;4.10;99.90;;;;;;5086568;28;20504;-84
2022/02/15 00:39:46;;;;;;;24.27;13.30;;;4.10;99.90;;;;;;5073078;28;20198;-83
2022/02/15 00:42:14;;;;;;;24.25;15.88;;;4.00;99.90;;;;;;5069763;28;20202;-84
2022/02/15 00:44:42;;;;;;;28.23;15.68;;;4.00;99.90;;;;;;5069535;28;20440;-87
2022/02/15 00:47:09;;;;;;;21.75;15.25;;;3.90;99.90;;;;;;5075310;28;20185;-87
2022/02/15 00:49:36;;;;;;;24.35;15.73;;;3.80;99.90;;;;;;5085785;28;20194;-88
2022/02/15 00:52:04;;;;;;;28.70;15.80;;;3.90;99.90;;;;;;5091421;28;20190;-88
2022/02/15 00:54:32;;;;;;;24.13;15.70;;;3.90;99.90;;;;;;5089458;28;20190;-88
2022/02/15 00:57:00;;;;;;;19.52;15.05;;;4.00;99.90;;;;;;5088699;28;20213;-87
2022/02/15 00:59:28;;;;;;;24.45;14.98;;;4.00;99.90;;;;;;5084844;28;20196;-87
2022/02/15 01:01:56;;;;;;;25.15;17.33;;;4.00;99.90;;;;;;5079171;28;20395;-88
2022/02/15 01:04:24;;;;;;;29.15;18.35;;;4.10;99.90;;;;;;5080174;28;20276;-89
2022/02/15 01:06:51;;;;;;;24.02;15.10;;;4.20;99.90;;;;;;5079743;28;20436;-88
2022/02/15 01:09:19;;;;;;;31.73;15.98;;;4.10;99.90;;;;;;5072738;28;20201;-88
2022/02/15 01:11:47;;;;;;;29.52;16.70;;;4.20;99.90;;;;;;5080359;28;20252;-89
2022/02/15 01:14:15;;;;;;;23.77;15.25;;;4.20;99.90;;;;;;5080556;28;20206;-90
2022/02/15 01:16:43;;;;;;;27.88;15.00;;;4.30;99.90;;;;;;5080803;28;20205;-88
2022/02/15 01:19:11;;;;;;;23.63;15.88;;;4.50;99.90;;;;;;5077620;28;20233;-86
2022/02/15 01:21:38;;;;;;;28.10;18.17;;;4.30;99.90;;;;;;5076314;28;20217;-86
2022/02/15 01:24:06;;;;;;;31.88;17.65;;;4.10;99.90;;;;;;5083463;28;20258;-89
2022/02/15 01:26:34;;;;;;;27.83;18.90;;;4.10;99.90;;;;;;5088193;28;20229;-88
2022/02/15 01:29:02;;;;;;;31.35;17.50;;;4.00;99.90;;;;;;5083546;28;20202;-88
2022/02/15 01:31:30;;;;;;;22.60;15.88;;;3.90;99.90;;;;;;5076297;28;20217;-88
2022/02/15 01:33:57;;;;;;;31.20;17.85;;;4.00;99.90;;;;;;5085994;28;20386;-88
2022/02/15 01:36:25;;;;;;;32.35;16.02;;;4.30;99.90;;;;;;5083361;28;20217;-89
2022/02/15 01:38:52;;;;;;;24.25;16.55;;;4.50;99.90;;;;;;5085695;28;20535;-88
2022/02/15 01:41:20;;;;;;;29.40;16.75;;;4.40;99.90;;;;;;5087066;28;20372;-86
2022/02/15 01:43:48;;;;;;;23.90;15.18;;;4.20;99.90;;;;;;5085843;28;20201;-86
2022/02/15 01:46:16;;;;;;;30.98;17.55;;;3.90;99.90;;;;;;5087554;28;20253;-86
2022/02/15 01:48:47;;;;;;;25.50;17.45;;;3.70;99.90;;;;;;5084424;28;20212;-86
2022/02/15 01:51:16;;;;;;;24.55;13.35;;;3.80;99.90;;;;;;5088009;28;20193;-85
2022/02/15 01:53:44;;;;;;;21.95;15.25;;;3.80;99.90;;;;;;5070456;28;20206;-86
2022/02/15 01:56:13;;;;;;;28.80;15.93;;;3.80;99.90;;;;;;5068043;28;20227;-84
2022/02/15 01:58:41;;;;;;;30.52;17.52;;;3.70;99.90;;;;;;5068148;28;20297;-86
2022/02/15 02:01:08;;;;;;;21.65;15.90;;;3.80;99.90;;;;;;5066234;28;20201;-85
2022/02/15 02:03:36;;;;;;;27.60;16.17;;;4.00;99.90;;;;;;5074829;28;20246;-86
2022/02/15 02:06:03;;;;;;;24.73;15.02;;;4.10;99.90;;;;;;5089822;28;20210;-84
2022/02/15 02:08:33;;;;;;;22.30;16.00;;;4.00;99.90;;;;;;5085313;28;20212;-88
2022/02/15 02:11:03;;;;;;;27.75;16.75;;;4.10;99.90;;;;;;5080243;28;20220;-86
2022/02/15 02:13:30;;;;;;;24.48;15.57;;;4.00;99.90;;;;;;5077809;28;20643;-88
2022/02/15 02:15:58;;;;;;;21.10;13.65;;;3.90;99.90;;;;;;5074685;28;20193;-89
2022/02/15 02:18:25;;;;;;;30.45;17.13;;;3.90;99.90;;;;;;5085179;28;20221;-86
2022/02/15 02:20:53;;;;;;;29.45;17.73;;;4.00;99.90;;;;;;5073656;28;20241;-88
2022/02/15 02:23:21;;;;;;;27.20;15.50;;;4.00;99.90;;;;;;5085895;28;20200;-87
2022/02/15 02:25:48;;;;;;;24.00;15.00;;;4.00;99.90;;;;;;5083137;28;20200;-88
2022/02/15 02:28:17;;;;;;;20.58;13.40;;;3.90;99.90;;;;;;5085844;28;20204;-87
2022/02/15 02:30:45;;;;;;;23.90;15.32;;;4.20;99.90;;;;;;5088568;28;20265;-87
2022/02/15 02:33:13;;;;;;;30.27;16.17;;;4.30;99.90;;;;;;5082544;28;20280;-87
2022/02/15 02:35:40;;;;;;;27.45;13.93;;;4.20;99.90;;;;;;5064768;28;20205;-88
2022/02/15 02:38:07;;;;;;;32.22;16.40;;;4.20;99.90;;;;;;5080158;28;20234;-88
2022/02/15 02:40:37;;;;;;;24.63;15.80;;;4.10;99.90;;;;;;5085359;28;20529;-87
2022/02/15 02:43:05;;;;;;;22.90;15.43;;;4.20;99.90;;;;;;5079384;28;20216;-89
2022/02/15 02:45:33;;;;;;;24.42;15.48;;;4.10;99.90;;;;;;5088555;28;20212;-87
2022/02/15 02:48:00;;;;;;;25.40;16.75;;;4.10;99.90;;;;;;5089358;28;20229;-88
2022/02/15 02:50:29;;;;;;;25.92;15.77;;;4.30;99.90;;;;;;5098203;28;20202;-87
2022/02/15 02:52:57;;;;;;;26.05;14.95;;;4.20;99.90;;;;;;5092037;28;20203;-86
2022/02/15 02:55:26;;;;;;;23.15;14.30;;;4.20;99.90;;;;;;5090411;28;20274;-86
2022/02/15 02:57:54;;;;;;;26.10;17.08;;;4.30;99.90;;;;;;5089168;28;20527;-87
2022/02/15 03:00:22;;;;;;;25.05;16.17;;;4.40;99.90;;;;;;5088915;28;20264;-86
2022/02/15 03:02:49;;;;;;;21.83;16.35;;;4.40;99.90;;;;;;5072609;28;20240;-86
2022/02/15 03:05:18;;;;;;;25.17;15.75;;;4.20;99.90;;;;;;5074756;28;20356;-88
2022/02/15 03:07:46;;;;;;;21.02;14.52;;;4.40;99.90;;;;;;5086508;28;20201;-85
2022/02/15 03:10:13;;;;;;;27.38;15.45;;;4.40;99.90;;;;;;5078761;28;20267;-88
2022/02/15 03:12:40;;;;;;;24.58;15.25;;;4.60;99.90;;;;;;5081330;28;20203;-87
2022/02/15 03:15:08;;;;;;;27.50;16.38;;;4.90;99.90;;;;;;5077414;28;20202;-87
2022/02/15 03:17:36;;;;;;;22.60;16.85;;;5.20;99.90;;;;;;5085311;28;20263;-87
2022/02/15 03:20:23;;;;;;;26.05;14.68;;;5.10;99.90;;;;;;5085894;28;20247;-87
2022/02/15 03:22:51;;;;;;;29.05;15.25;;;5.10;99.90;;;;;;5088196;28;20261;-86
2022/02/15 03:25:18;;;;;;;24.50;16.65;;;5.30;99.90;;;;;;5087234;28;20261;-86
2022/02/15 03:27:45;;;;;;;19.95;14.30;;;5.50;99.90;;;;;;5076398;28;20315;-87
2022/02/15 03:30:13;;;;;;;25.45;16.58;;;5.40;99.90;;;;;;5082791;28;20206;-86
2022/02/15 03:32:42;;;;;;;23.85;14.65;;;5.40;99.90;;;;;;5074322;28;20205;-87
2022/02/15 03:35:10;;;;;;;23.52;16.13;;;5.10;99.90;;;;;;5072283;28;20205;-86
2022/02/15 03:37:38;;;;;;;29.23;18.30;;;5.20;99.90;;;;;;5083652;28;20367;-85
2022/02/15 03:40:07;;;;;;;26.27;17.52;;;5.40;99.90;;;;;;5075405;28;20186;-86
2022/02/15 03:45:21;;;;;;;25.02;16.52;;;5.40;99.90;;;;;;5077494;28;20269;-86
2022/02/15 03:47:49;;;;;;;22.88;16.50;;;5.50;99.90;;;;;;5075901;28;20209;-88
2022/02/15 03:50:16;;;;;;;28.40;18.33;;;5.10;99.90;;;;;;5080958;28;20524;-88
2022/02/15 03:52:43;;;;;;;26.65;17.58;;;5.10;99.90;;;;;;5079687;28;20525;-86
2022/02/15 03:55:11;;;;;;;33.00;19.52;;;5.00;99.90;;;;;;5079031;28;20252;-87
2022/02/15 03:57:39;;;;;;;32.00;17.92;;;5.20;99.90;;;;;;5080929;28;20217;-88
2022/02/15 04:00:08;;;;;;;25.25;16.92;;;5.30;99.90;;;;;;5074561;28;20541;-87
2022/02/15 04:02:35;;;;;;;32.33;19.30;;;5.10;99.90;;;;;;5081839;28;20209;-88
2022/02/15 04:05:05;;;;;;;30.50;18.13;;;5.10;99.90;;;;;;5078457;28;20212;-86
2022/02/15 04:07:32;;;;;;;25.88;18.35;;;4.70;99.90;;;;;;5081849;28;20309;-87
2022/02/15 04:10:00;;;;;;;33.22;19.00;;;4.60;99.90;;;;;;5076677;28;20260;-87
2022/02/15 04:12:27;;;;;;;26.10;18.60;;;4.50;99.90;;;;;;5085814;28;20210;-88
2022/02/15 04:14:56;;;;;;;29.50;19.67;;;4.80;99.90;;;;;;5087094;28;20213;-86
2022/02/15 04:17:24;;;;;;;25.30;17.00;;;4.80;99.90;;;;;;5091187;28;20204;-87
2022/02/15 04:19:51;;;;;;;30.05;18.50;;;4.30;99.90;;;;;;5073254;28;20381;-86
2022/02/15 04:22:20;;;;;;;26.70;18.08;;;4.30;99.90;;;;;;5081787;28;20432;-84
2022/02/15 04:24:47;;;;;;;27.75;17.17;;;4.30;99.90;;;;;;5071970;28;20447;-84
2022/02/15 04:27:15;;;;;;;30.55;20.75;;;4.10;99.90;;;;;;5082079;28;20283;-84
2022/02/15 04:29:43;;;;;;;27.52;18.13;;;4.30;99.90;;;;;;5079930;28;20229;-88
2022/02/15 04:32:11;;;;;;;24.23;17.20;;;4.30;99.90;;;;;;5084227;28;20561;-88
2022/02/15 04:34:39;;;;;;;38.75;21.30;;;4.40;99.90;;;;;;5081374;28;20202;-89
2022/02/15 04:37:07;;;;;;;28.23;17.90;;;4.40;99.90;;;;;;5071971;28;20223;-87
2022/02/15 04:39:37;;;;;;;22.25;16.50;;;4.50;99.90;;;;;;5086411;28;20576;-88
2022/02/15 04:42:04;;;;;;;32.38;20.35;;;4.70;99.90;;;;;;5082982;28;20185;-87
2022/02/15 04:44:32;;;;;;;32.80;20.77;;;4.70;99.90;;;;;;5089177;28;20228;-88
2022/02/15 04:46:59;;;;;;;27.60;19.42;;;4.80;99.90;;;;;;5075608;28;20195;-87
2022/02/15 04:49:28;;;;;;;31.00;20.88;;;4.90;99.90;;;;;;5088391;28;20242;-88
2022/02/15 04:51:56;;;;;;;25.02;16.80;;;4.90;99.90;;;;;;5086146;28;20234;-87
2022/02/15 04:54:23;;;;;;;38.75;23.15;;;4.90;99.90;;;;;;5087410;28;20233;-85
2022/02/15 04:56:52;;;;;;;42.35;23.80;;;4.90;99.90;;;;;;5103892;28;20208;-87
2022/02/15 04:59:20;;;;;;;32.20;21.17;;;4.70;99.90;;;;;;5089311;28;20538;-85
2022/02/15 05:01:48;;;;;;;28.52;18.42;;;4.70;99.90;;;;;;5087970;28;20208;-84
2022/02/15 05:07:01;;;;;;;29.20;18.92;;;5.10;99.90;;;;;;5088307;28;20247;-83
2022/02/15 05:09:32;;;;;;;20.20;15.32;;;5.30;99.90;;;;;;5087601;28;20198;-85
2022/02/15 05:11:59;;;;;;;35.17;23.33;;;5.30;99.90;;;;;;5088011;28;20202;-84
2022/02/15 05:14:26;;;;;;;30.25;20.35;;;5.30;99.90;;;;;;5085960;28;20268;-85
2022/02/15 05:16:54;;;;;;;37.45;23.17;;;5.60;99.90;;;;;;5087721;28;20530;-87
2022/02/15 05:19:21;;;;;;;26.52;18.52;;;5.60;99.90;;;;;;5087338;28;20222;-86
2022/02/15 05:21:49;;;;;;;31.65;17.00;;;5.50;99.90;;;;;;5086676;28;20302;-85
2022/02/15 05:24:17;;;;;;;27.73;18.73;;;5.50;99.90;;;;;;5087618;28;20272;-84
2022/02/15 05:26:44;;;;;;;25.55;17.65;;;5.10;99.90;;;;;;5086395;28;20532;-85
2022/02/15 05:29:12;;;;;;;24.95;17.67;;;5.20;99.90;;;;;;5086192;28;20207;-84
2022/02/15 05:31:39;;;;;;;20.05;16.33;;;5.60;99.90;;;;;;5084743;28;20423;-84
2022/02/15 05:34:07;;;;;;;30.80;16.45;;;5.90;99.90;;;;;;5084726;28;20213;-82
2022/02/15 05:36:36;;;;;;;23.85;16.98;;;5.90;99.90;;;;;;5086017;28;20291;-83
2022/02/15 05:39:04;;;;;;;25.50;19.05;;;5.90;99.90;;;;;;5085836;28;20340;-82
2022/02/15 05:41:31;;;;;;;30.75;18.63;;;5.80;99.90;;;;;;5084896;28;20198;-85
2022/02/15 05:43:58;;;;;;;26.52;18.27;;;5.60;99.90;;;;;;5084399;28;20204;-84
2022/02/15 05:46:26;;;;;;;23.83;16.13;;;5.70;99.90;;;;;;5085542;28;20198;-85
2022/02/15 05:48:54;;;;;;;27.08;17.90;;;5.90;99.90;;;;;;5087658;28;20205;-86
2022/02/15 05:51:21;;;;;;;30.10;17.33;;;6.00;99.90;;;;;;5086723;28;20209;-86
2022/02/15 05:53:49;;;;;;;22.65;16.65;;;5.90;99.90;;;;;;5089020;28;20207;-86
2022/02/15 05:56:17;;;;;;;24.58;17.48;;;6.00;99.90;;;;;;5088543;28;20523;-85
2022/02/15 05:58:44;;;;;;;22.42;17.33;;;6.10;99.90;;;;;;5088815;28;20222;-85
2022/02/15 06:01:12;;;;;;;25.58;17.00;;;5.80;99.90;;;;;;5088955;28;20198;-86
2022/02/15 06:06:25;;;;;;;24.05;19.42;;;6.10;99.90;;;;;;5088127;28;20461;-86
2022/02/15 06:08:52;;;;;;;23.60;15.68;;;6.10;99.90;;;;;;5085977;28;20233;-86
2022/02/15 06:11:20;;;;;;;26.25;17.52;;;6.20;99.90;;;;;;5087390;28;20209;-85
2022/02/15 06:13:49;;;;;;;26.05;15.38;;;6.40;99.90;;;;;;5086524;28;20228;-84
2022/02/15 06:16:16;;;;;;;24.70;18.27;;;6.40;99.90;;;;;;5086051;28;20221;-85
2022/02/15 06:18:43;;;;;;;29.27;20.30;;;6.40;99.90;;;;;;5085531;28;20218;-86
2022/02/15 06:21:11;;;;;;;32.22;20.30;;;6.40;99.90;;;;;;5084969;28;20398;-85
2022/02/15 06:23:38;;;;;;;45.78;22.00;;;6.40;99.90;;;;;;5091048;28;20237;-85
2022/02/15 06:26:09;;;;;;;35.15;22.63;;;6.40;99.90;;;;;;5080373;28;20213;-87
2022/02/15 06:28:37;;;;;;;35.35;20.48;;;6.50;99.90;;;;;;5084123;28;20247;-84
2022/02/15 06:31:04;;;;;;;32.67;20.02;;;6.50;99.90;;;;;;5085503;28;20209;-86
2022/02/15 06:33:34;;;;;;;36.53;20.80;;;6.30;99.90;;;;;;5085540;28;20205;-85
2022/02/15 06:36:05;;;;;;;30.90;18.88;;;6.40;99.90;;;;;;5083098;28;20269;-84
2022/02/15 06:38:33;;;;;;;24.05;17.88;;;6.30;99.90;;;;;;5084192;28;20233;-84
2022/02/15 06:41:00;;;;;;;31.38;20.45;;;6.40;99.90;;;;;;5084595;28;20511;-86
2022/02/15 06:43:28;;;;;;;31.40;20.77;;;6.30;99.90;;;;;;5083507;28;20213;-85
2022/02/15 06:45:55;;;;;;;27.40;18.40;;;6.50;99.90;;;;;;5084154;28;20197;-85
2022/02/15 06:48:22;;;;;;;33.33;21.67;;;6.60;99.90;;;;;;5084705;28;20402;-85
2022/02/15 06:50:50;;;;;;;33.35;21.02;;;6.50;99.90;;;;;;5084529;28;20205;-85
2022/02/15 06:53:17;;;;;;;35.03;20.90;;;6.60;99.90;;;;;;5083681;28;20198;-84
2022/02/15 06:56:09;;;;;;;32.90;17.80;;;6.50;99.90;;;;;;5083990;28;20193;-86
2022/02/15 06:58:37;;;;;;;33.25;18.65;;;6.60;99.90;;;;;;5084873;28;20248;-85
2022/02/15 07:01:05;;;;;;;25.83;17.48;;;6.70;99.90;;;;;;5083885;28;20270;-86
2022/02/15 07:03:35;;;;;;;22.10;16.63;;;6.80;99.90;;;;;;5083703;28;20199;-84
2022/02/15 07:06:04;;;;;;;24.73;17.58;;;6.80;99.90;;;;;;5083529;28;20381;-85
2022/02/15 07:08:32;;;;;;;30.52;19.75;;;6.70;99.90;;;;;;5084901;28;20199;-85
2022/02/15 07:10:59;;;;;;;22.35;15.77;;;6.60;99.90;;;;;;5084205;28;20204;-85
2022/02/15 07:13:27;;;;;;;31.30;18.38;;;6.70;99.90;;;;;;5084609;28;20201;-84
2022/02/15 07:15:54;;;;;;;28.15;17.88;;;6.90;99.90;;;;;;5074619;28;20202;-86
2022/02/15 07:18:23;;;;;;;26.52;17.30;;;6.80;99.90;;;;;;5064814;28;20191;-88
2022/02/15 07:20:50;;;;;;;39.63;20.58;;;6.90;99.90;;;;;;5084035;28;20220;-85
2022/02/15 07:23:17;;;;;;;40.50;24.65;;;6.80;99.90;;;;;;5079794;28;20214;-86
2022/02/15 07:25:45;;;;;;;31.88;21.17;;;6.70;99.90;;;;;;5064596;28;20223;-86
2022/02/15 07:28:13;;;;;;;25.33;18.80;;;6.80;99.90;;;;;;5065155;28;20208;-86
2022/02/15 07:30:40;;;;;;;23.83;16.50;;;6.90;99.90;;;;;;5064125;28;20218;-85
2022/02/15 07:33:08;;;;;;;29.48;19.70;;;7.10;99.90;;;;;;5065392;28;20203;-85
2022/02/15 07:35:36;;;;;;;30.55;17.95;;;7.30;99.90;;;;;;5065018;28;20241;-85
2022/02/15 07:38:03;;;;;;;27.30;17.17;;;7.50;99.90;;;;;;5065601;28;20472;-86
2022/02/15 07:40:30;;;;;;;27.58;16.23;;;7.70;99.90;;;;;;5065400;28;20216;-86
2022/02/15 07:42:58;;;;;;;24.33;18.02;;;8.00;99.90;;;;;;5065146;28;20191;-86
2022/02/15 07:45:25;;;;;;;21.98;15.43;;;8.30;99.90;;;;;;5063969;28;20199;-86
2022/02/15 07:47:54;;;;;;;20.25;13.95;;;8.30;99.90;;;;;;5080348;28;20252;-87
2022/02/15 07:50:23;;;;;;;19.63;14.65;;;8.50;99.90;;;;;;5085652;28;20202;-87
2022/02/15 07:52:53;;;;;;;18.80;13.35;;;8.70;99.90;;;;;;5088909;28;20205;-86
2022/02/15 07:55:21;;;;;;;22.65;15.13;;;8.60;99.90;;;;;;5089019;28;20222;-85
2022/02/15 07:57:48;;;;;;;20.38;14.55;;;8.60;99.90;;;;;;5088658;28;20430;-86
2022/02/15 08:00:20;;;;;;;20.70;14.35;;;8.70;99.90;;;;;;5088482;28;20229;-87
2022/02/15 08:02:50;;;;;;;14.77;11.80;;;9.00;99.90;;;;;;5088578;28;20225;-86
2022/02/15 08:05:18;;;;;;;20.90;14.85;;;9.10;99.90;;;;;;5087680;28;20229;-85
2022/02/15 08:07:53;;;;;;;14.82;13.30;;;9.30;99.90;;;;;;5088646;28;20202;-87
2022/02/15 08:10:22;;;;;;;23.33;15.48;;;9.40;99.90;;;;;;5088546;28;20205;-86
2022/02/15 08:12:58;;;;;;;24.67;14.48;;;9.70;99.90;;;;;;5087284;28;20346;-86
2022/02/15 08:15:28;;;;;;;19.17;13.57;;;9.90;99.90;;;;;;5088856;28;20423;-85
2022/02/15 08:17:56;;;;;;;17.92;12.25;;;9.70;99.90;;;;;;5088389;28;20183;-85
2022/02/15 08:20:29;;;;;;;16.33;11.23;;;9.50;99.90;;;;;;5088953;28;20371;-86
2022/02/15 08:22:57;;;;;;;16.98;11.23;;;9.60;99.90;;;;;;5088579;28;20203;-87
2022/02/15 08:25:24;;;;;;;18.40;12.93;;;9.80;99.90;;;;;;5088605;28;20192;-87
2022/02/15 08:27:52;;;;;;;17.45;11.52;;;9.80;99.90;;;;;;5088523;28;20203;-85
2022/02/15 08:30:19;;;;;;;19.00;13.25;;;9.80;99.90;;;;;;5089339;28;20485;-86
2022/02/15 08:32:46;;;;;;;13.40;10.57;;;9.90;99.90;;;;;;5087403;28;20200;-85
2022/02/15 08:35:15;;;;;;;17.92;11.88;;;9.90;99.90;;;;;;5088593;28;20441;-86
2022/02/15 08:37:42;;;;;;;19.13;13.25;;;9.90;99.90;;;;;;5088211;28;20200;-87
2022/02/15 08:40:14;;;;;;;18.30;12.93;;;9.80;99.90;;;;;;5087091;28;20280;-86
2022/02/15 08:42:43;;;;;;;18.65;13.32;;;9.90;99.90;;;;;;5089579;28;20187;-87
2022/02/15 08:45:11;;;;;;;13.13;10.70;;;10.00;99.90;;;;;;5088955;28;20251;-87
2022/02/15 08:47:39;;;;;;;17.00;10.55;;;10.10;99.90;;;;;;5087558;28;20586;-86
2022/02/15 08:50:08;;;;;;;14.65;11.63;;;10.60;99.90;;;;;;5088524;28;20207;-86
2022/02/15 08:52:39;;;;;;;17.90;10.88;;;10.80;99.90;;;;;;5088331;28;20295;-87
2022/02/15 08:55:08;;;;;;;13.95;10.55;;;10.90;99.90;;;;;;5087876;28;20425;-86
2022/02/15 08:57:37;;;;;;;14.80;11.60;;;10.70;99.90;;;;;;5088681;28;20272;-87
2022/02/15 09:00:09;;;;;;;10.68;9.23;;;10.60;99.90;;;;;;5088802;28;20380;-88
2022/02/15 09:02:36;;;;;;;15.48;11.23;;;10.40;99.90;;;;;;5087114;28;20189;-88
2022/02/15 09:05:05;;;;;;;15.85;10.75;;;10.60;99.90;;;;;;5088168;28;20195;-88
2022/02/15 09:07:32;;;;;;;12.75;10.45;;;10.80;99.90;;;;;;5088517;28;20220;-88
2022/02/15 09:09:59;;;;;;;10.68;8.90;;;10.80;99.90;;;;;;5087283;28;20201;-86
2022/02/15 09:12:27;;;;;;;10.25;8.75;;;10.50;99.90;;;;;;5086663;28;20475;-87
2022/02/15 09:14:54;;;;;;;11.77;9.50;;;10.30;99.90;;;;;;5087379;28;20194;-85
2022/02/15 09:17:21;;;;;;;10.65;9.55;;;10.30;99.90;;;;;;5088265;28;20218;-89
2022/02/15 09:19:49;;;;;;;12.55;10.68;;;10.30;99.90;;;;;;5069419;28;20222;-86
2022/02/15 09:22:17;;;;;;;16.02;10.05;;;10.40;99.90;;;;;;5087392;28;20224;-87
2022/02/15 09:24:45;;;;;;;11.35;8.70;;;10.40;99.90;;;;;;5079407;28;20190;-87
2022/02/15 09:27:13;;;;;;;13.80;10.30;;;10.50;99.90;;;;;;5102358;28;20208;-86
2022/02/15 09:29:40;;;;;;;13.30;7.97;;;10.30;99.90;;;;;;5070387;28;20204;-84
2022/02/15 09:32:09;;;;;;;14.30;10.82;;;10.30;99.90;;;;;;5067984;28;20322;-87
2022/02/15 09:34:36;;;;;;;14.88;11.32;;;10.20;99.90;;;;;;5066831;28;20186;-87
2022/02/15 09:37:04;;;;;;;11.13;9.13;;;10.10;99.90;;;;;;5068329;28;20210;-87
2022/02/15 09:39:31;;;;;;;13.35;9.00;;;10.00;99.90;;;;;;5086480;28;20220;-89
2022/02/15 09:41:59;;;;;;;17.85;10.57;;;9.80;99.90;;;;;;5084390;28;20198;-87
2022/02/15 09:44:26;;;;;;;11.00;8.80;;;9.80;99.90;;;;;;5075909;28;20197;-88
2022/02/15 09:46:55;;;;;;;12.43;8.45;;;10.00;99.90;;;;;;5086693;28;20446;-87
2022/02/15 09:52:13;;;;;;;12.02;8.15;;;10.20;99.90;;;;;;5067787;28;20484;-89
2022/02/15 09:54:42;;;;;;;12.07;9.05;;;10.20;99.90;;;;;;5066163;28;20506;-89
2022/02/15 09:57:10;;;;;;;12.07;9.68;;;10.40;99.90;;;;;;5082945;28;20208;-87
2022/02/15 09:59:38;;;;;;;13.48;9.50;;;10.40;99.90;;;;;;5067187;28;20218;-87
2022/02/15 10:02:13;;;;;;;9.70;8.68;;;10.40;99.90;;;;;;5082599;28;20188;-86
2022/02/15 10:04:41;;;;;;;12.75;8.70;;;10.20;99.90;;;;;;5068280;28;20185;-88
2022/02/15 10:07:11;;;;;;;21.23;9.35;;;10.30;99.90;;;;;;5067193;28;20268;-87
2022/02/15 10:09:41;;;;;;;12.48;9.25;;;10.60;99.90;;;;;;5069006;28;20383;-88
2022/02/15 10:12:14;;;;;;;13.63;9.10;;;10.70;99.90;;;;;;5083459;28;20201;-85
2022/02/15 10:14:44;;;;;;;10.20;9.10;;;10.60;99.90;;;;;;5067565;28;20338;-88
2022/02/15 10:17:15;;;;;;;14.50;10.30;;;10.40;99.90;;;;;;5067643;28;20189;-89
2022/02/15 10:19:50;;;;;;;13.43;8.88;;;10.30;99.90;;;;;;5067215;28;20475;-87
2022/02/15 10:22:22;;;;;;;9.93;8.23;;;10.30;99.90;;;;;;5066102;28;20186;-88
2022/02/15 10:24:55;;;;;;;9.68;8.25;;;10.20;99.90;;;;;;5066871;28;20202;-89
2022/02/15 10:27:31;;;;;;;10.40;8.30;;;10.30;99.90;;;;;;5066848;28;20272;-87
2022/02/15 10:29:59;;;;;;;12.85;8.18;;;10.20;99.90;;;;;;5082370;28;20192;-88
2022/02/15 10:32:26;;;;;;;10.20;8.20;;;10.10;99.90;;;;;;5067389;28;20217;-88
2022/02/15 10:34:59;;;;;;;11.15;9.95;;;10.10;99.90;;;;;;5066921;28;20447;-86
2022/02/15 10:37:31;;;;;;;13.48;9.70;;;10.00;99.90;;;;;;5066539;28;20290;-87
2022/02/15 10:40:03;;;;;;;13.68;10.13;;;9.90;99.90;;;;;;5066357;28;20283;-88
2022/02/15 10:42:31;;;;;;;13.00;9.30;;;9.70;99.90;;;;;;5066533;28;20265;-87
2022/02/15 10:45:02;;;;;;;15.13;9.88;;;9.50;99.90;;;;;;5066907;28;20550;-86
2022/02/15 10:47:35;;;;;;;13.73;9.50;;;9.40;99.90;;;;;;5066458;28;20190;-87
2022/02/15 10:50:07;;;;;;;10.32;8.73;;;9.30;99.90;;;;;;5066615;28;20285;-87
2022/02/15 10:52:35;;;;;;;14.73;10.25;;;9.30;99.90;;;;;;5080224;28;20228;-85
2022/02/15 10:55:04;;;;;;;11.85;8.88;;;9.30;99.90;;;;;;5065507;28;20245;-85
2022/02/15 10:57:32;;;;;;;9.60;8.50;;;9.10;99.90;;;;;;5065898;28;20201;-86
2022/02/15 11:00:07;;;;;;;14.13;10.95;;;8.90;99.90;;;;;;5065358;28;20430;-86
2022/02/15 11:02:38;;;;;;;15.00;10.90;;;8.90;99.90;;;;;;5066290;28;20190;-86
2022/02/15 11:05:11;;;;;;;15.68;12.18;;;8.80;99.90;;;;;;5064753;28;20200;-86
2022/02/15 11:07:39;;;;;;;15.82;11.30;;;8.60;99.90;;;;;;5065028;28;20197;-86
2022/02/15 11:10:25;;;;;;;14.60;12.68;;;8.80;99.90;;;;;;5064472;28;20429;-86
2022/02/15 11:13:03;;;;;;;13.45;10.88;;;8.60;99.90;;;;;;5081037;28;20370;-86
2022/02/15 11:15:33;;;;;;;24.63;13.50;;;8.50;99.90;;;;;;5065715;28;20252;-86
2022/02/15 11:18:02;;;;;;;13.88;10.50;;;8.60;99.90;;;;;;5065580;28;20207;-85
2022/02/15 11:20:50;;;;;;;19.02;12.80;;;8.80;99.90;;;;;;5066161;28;20230;-84
2022/02/15 11:23:20;;;;;;;17.48;13.43;;;8.90;99.90;;;;;;5082412;28;20211;-87
2022/02/15 11:26:04;;;;;;;18.60;12.55;;;8.70;99.90;;;;;;5065750;28;20231;-85
2022/02/15 11:28:31;;;;;;;14.15;11.82;;;8.70;99.90;;;;;;5066038;28;20199;-88
2022/02/15 11:31:00;;;;;;;16.15;13.55;;;8.90;99.90;;;;;;5065944;28;20206;-87
2022/02/15 11:33:36;;;;;;;17.42;14.38;;;9.20;99.90;;;;;;5067425;28;20375;-88
2022/02/15 11:36:10;;;;;;;14.25;11.55;;;9.50;99.90;;;;;;5067080;28;20272;-87
2022/02/15 11:38:37;;;;;;;18.33;12.65;;;9.60;99.90;;;;;;5077506;28;20362;-88
2022/02/15 11:41:07;;;;;;;17.08;13.07;;;9.90;99.90;;;;;;5100837;28;20226;-89
2022/02/15 11:43:36;;;;;;;18.95;12.27;;;10.10;99.90;;;;;;5085501;28;20223;-87
2022/02/15 11:46:05;;;;;;;15.68;11.52;;;10.00;99.90;;;;;;5085162;28;20196;-88
2022/02/15 11:48:41;;;;;;;17.20;13.38;;;10.10;99.90;;;;;;5100460;28;20196;-87
2022/02/15 11:51:18;;;;;;;20.23;12.80;;;9.90;99.90;;;;;;5100662;28;20192;-88
2022/02/15 11:53:48;;;;;;;13.18;11.13;;;10.10;99.90;;;;;;5103511;28;20208;-89
2022/02/15 11:56:17;;;;;;;19.42;11.95;;;10.40;99.90;;;;;;5104432;28;20182;-86
2022/02/15 11:58:47;;;;;;;16.02;13.85;;;10.60;99.90;;;;;;5087671;28;20269;-86
2022/02/15 12:01:30;;;;;;;20.45;11.73;;;10.50;99.90;;;;;;5085119;28;20217;-85
2022/02/15 12:04:00;;;;;;;18.27;11.52;;;10.60;99.90;;;;;;5084972;28;20205;-85
2022/02/15 12:06:39;;;;;;;16.20;11.43;;;10.70;99.90;;;;;;5085460;28;20264;-86
2022/02/15 12:09:10;;;;;;;14.95;12.02;;;10.80;99.90;;;;;;5100839;28;20249;-87
2022/02/15 12:11:40;;;;;;;19.15;11.88;;;10.90;99.90;;;;;;5085528;28;20268;-87
2022/02/15 12:14:23;;;;;;;14.00;11.70;;;10.90;99.90;;;;;;5101159;28;20250;-87
2022/02/15 12:16:55;;;;;;;14.70;11.25;;;11.10;99.90;;;;;;5100453;28;20189;-88
2022/02/15 12:19:28;;;;;;;15.13;10.82;;;11.20;99.90;;;;;;5099643;28;20194;-87
2022/02/15 12:22:01;;;;;;;14.80;10.68;;;11.30;99.90;;;;;;5084729;28;20458;-89
2022/02/15 12:24:30;;;;;;;15.57;10.32;;;11.50;99.90;;;;;;5082363;28;20221;-88
2022/02/15 12:27:00;;;;;;;15.43;9.80;;;11.80;99.90;;;;;;5084170;28;20264;-86
2022/02/15 12:29:28;;;;;;;17.88;12.60;;;12.00;99.90;;;;;;5083966;28;20194;-87
2022/02/15 12:32:03;;;;;;;13.20;11.35;;;12.10;99.90;;;;;;5083719;28;20208;-89
2022/02/15 12:34:32;;;;;;;15.60;10.13;;;11.90;99.90;;;;;;5087151;28;20200;-87
2022/02/15 12:37:00;;;;;;;14.10;10.85;;;12.00;99.90;;;;;;5086797;28;20261;-87
2022/02/15 12:39:38;;;;;;;14.05;10.60;;;12.10;99.90;;;;;;5070462;28;20206;-88
2022/02/15 12:42:14;;;;;;;10.73;9.73;;;12.00;99.90;;;;;;5068719;28;20211;-89
2022/02/15 12:44:53;;;;;;;10.85;9.40;;;12.00;99.90;;;;;;5069375;28;20202;-89
2022/02/15 12:47:20;;;;;;;10.45;9.10;;;11.70;99.90;;;;;;5067650;28;20189;-89
2022/02/15 12:49:53;;;;;;;12.70;10.63;;;11.80;99.90;;;;;;5085399;28;20224;-91
2022/02/15 12:52:26;;;;;;;11.55;8.75;;;12.10;99.90;;;;;;5089182;28;20301;-88
2022/02/15 12:54:58;;;;;;;12.13;9.52;;;12.20;99.90;;;;;;5088588;28;20225;-88